Terminal Aerodrome Forecast
Issued by NWS

Home | Current Version | Previous Version | Text Only | Print | Product List | Glossary On
Versions: 1 2 3 4 5 6 7 8 9 10 11 12
000
FTUS41 KLWX 061131
TAFMTN
TAF
KMTN 061131Z 0612/0712 00000KT 5SM BR SCT080 SCT180
     FM061300 VRB03KT P6SM SCT100
     FM061800 08007KT P6SM BKN040
     FM062200 09008KT P6SM VCSH BKN035
     FM070100 VRB05KT P6SM SCT030 BKN070
     FM071000 VRB03KT 5SM BR SCT015 BKN030=

USA.gov is the U.S. government's official web portal to all federal, state and local government web resources and services.